Terminal Aerodrome Forecast
Issued by NWS

Home | Current Version | Previous Version | Text Only | Print | Product List | Glossary On
Versions: 1 2 3 4 5 6 7 8 9 10 11 12 13 14 15 16 17 18 19
000
FTUS46 KPDT 051721
TAFBDN
TAF
KBDN 051721Z 0518/0618 35005KT P6SM VCSH SCT010 BKN150
      TEMPO 0518/0520 BKN012
     FM052100 36009G15KT P6SM -SHRA SCT040 BKN100
      TEMPO 0522/0601 VRB20G35KT -TSRA BKN035CB OVC080
     FM060400 34011KT P6SM VCSH SCT050 BKN080
     FM060900 VRB04KT P6SM SCT050 BKN200=

USA.gov is the U.S. government's official web portal to all federal, state and local government web resources and services.